createdAt,value
2022-08-28T00:01:23.910Z,18.14
2022-08-28T00:03:51.559Z,18.23
2022-08-28T00:06:19.219Z,18.45
2022-08-28T00:08:48.322Z,18.28
2022-08-28T00:11:16.037Z,18.25
2022-08-28T00:13:43.948Z,18.27
2022-08-28T00:16:11.802Z,18.31
2022-08-28T00:18:39.918Z,18.34
2022-08-28T00:21:07.665Z,18.42
2022-08-28T00:23:42.403Z,18.35
2022-08-28T00:26:32.501Z,18.27
2022-08-28T00:28:59.260Z,18.29
2022-08-28T00:31:27.010Z,18.35
2022-08-28T00:33:54.782Z,18.40
2022-08-28T00:36:22.551Z,18.44
2022-08-28T00:38:50.550Z,18.32
2022-08-28T00:41:24.740Z,18.30
2022-08-28T00:44:07.126Z,18.39
2022-08-28T00:46:34.878Z,18.30
2022-08-28T00:49:02.866Z,18.32
2022-08-28T00:51:48.164Z,18.31
2022-08-28T00:54:15.877Z,18.31
2022-08-28T00:56:44.913Z,18.32
2022-08-28T00:59:17.112Z,18.30
2022-08-28T01:01:45.456Z,18.27
2022-08-28T01:04:16.855Z,18.29
2022-08-28T01:06:45.523Z,18.21
2022-08-28T01:09:15.083Z,18.34
2022-08-28T01:11:51.248Z,18.35
2022-08-28T01:14:23.003Z,18.25
2022-08-28T01:16:55.429Z,18.18
2022-08-28T01:19:28.122Z,18.24
2022-08-28T01:22:01.830Z,18.19
2022-08-28T01:24:31.441Z,18.30
2022-08-28T01:26:59.305Z,18.19
2022-08-28T01:29:29.010Z,18.17
2022-08-28T01:31:56.692Z,18.20
2022-08-28T01:34:24.708Z,18.27
2022-08-28T01:36:52.318Z,18.15
2022-08-28T01:39:22.250Z,18.18
2022-08-28T01:41:53.028Z,18.33
2022-08-28T01:44:24.773Z,18.16
2022-08-28T01:46:54.150Z,18.26
2022-08-28T01:49:22.797Z,18.20
2022-08-28T01:51:50.434Z,18.07
2022-08-28T01:54:20.001Z,18.02
2022-08-28T01:56:48.531Z,18.17
2022-08-28T01:59:17.927Z,18.15
2022-08-28T02:01:45.796Z,18.18
2022-08-28T02:04:13.634Z,18.10
2022-08-28T02:06:42.194Z,18.13
2022-08-28T02:09:14.500Z,18.08
2022-08-28T02:11:46.560Z,18.18
2022-08-28T02:14:14.700Z,18.10
2022-08-28T02:16:43.678Z,18.16
2022-08-28T02:19:12.093Z,18.12
2022-08-28T02:21:39.918Z,18.25
2022-08-28T02:24:07.753Z,18.10
2022-08-28T02:26:35.495Z,18.18
2022-08-28T02:29:03.258Z,18.09
2022-08-28T02:31:31.124Z,18.20
2022-08-28T02:34:00.170Z,18.20
2022-08-28T02:36:27.884Z,18.10
2022-08-28T02:38:57.715Z,18.14
2022-08-28T02:41:25.755Z,18.04
2022-08-28T02:43:54.571Z,18.11
2022-08-28T02:46:22.320Z,18.13
2022-08-28T02:48:50.401Z,18.13
2022-08-28T02:51:20.061Z,18.05
2022-08-28T02:53:47.743Z,18.07
2022-08-28T02:56:15.529Z,18.06
2022-08-28T02:58:43.358Z,18.06
2022-08-28T03:01:13.400Z,18.07
2022-08-28T03:03:42.200Z,18.11
2022-08-28T03:06:12.148Z,18.11
2022-08-28T03:08:41.694Z,18.08
2022-08-28T03:11:09.660Z,18.04
2022-08-28T03:13:37.396Z,18.01
2022-08-28T03:16:05.731Z,18.00
2022-08-28T03:18:34.222Z,18.02
2022-08-28T03:21:02.069Z,18.05
2022-08-28T03:23:29.128Z,18.12
2022-08-28T03:26:01.137Z,18.03
2022-08-28T03:28:30.858Z,18.02
2022-08-28T03:30:59.195Z,18.08
2022-08-28T03:33:27.024Z,18.08
2022-08-28T03:35:56.099Z,18.00
2022-08-28T03:38:25.286Z,17.96
2022-08-28T03:40:53.843Z,18.01
2022-08-28T03:43:24.876Z,18.01
2022-08-28T03:45:58.101Z,18.05
2022-08-28T03:48:26.231Z,18.03
2022-08-28T03:50:54.660Z,18.02
2022-08-28T03:53:23.775Z,17.95
2022-08-28T03:55:51.829Z,17.91
2022-08-28T03:58:19.691Z,17.97
2022-08-28T04:00:49.871Z,17.89
2022-08-28T04:03:17.897Z,17.78
2022-08-28T04:05:46.961Z,17.86
2022-08-28T04:08:15.934Z,17.84
2022-08-28T04:10:44.035Z,17.84
2022-08-28T04:13:12.619Z,17.93
2022-08-28T04:15:41.316Z,17.89
2022-08-28T04:18:11.116Z,17.81
2022-08-28T04:20:39.343Z,17.73
2022-08-28T04:23:09.797Z,17.80
2022-08-28T04:25:37.523Z,17.81
2022-08-28T04:28:05.168Z,17.60
2022-08-28T04:30:32.874Z,17.66
2022-08-28T04:33:00.448Z,17.63
2022-08-28T04:35:29.469Z,17.53
2022-08-28T04:37:58.980Z,17.55
2022-08-28T04:40:26.895Z,17.60
2022-08-28T04:42:54.666Z,17.52
2022-08-28T04:45:22.496Z,17.48
2022-08-28T04:47:50.181Z,17.44
2022-08-28T04:50:18.062Z,17.40
2022-08-28T04:52:47.181Z,17.39
2022-08-28T04:55:15.450Z,17.41
2022-08-28T04:57:45.942Z,17.41
2022-08-28T05:00:14.201Z,17.31
2022-08-28T05:02:42.070Z,17.43
2022-08-28T05:05:11.769Z,17.39
2022-08-28T05:07:39.495Z,17.43
2022-08-28T05:10:11.136Z,17.60
2022-08-28T05:12:38.875Z,17.45
2022-08-28T05:15:07.602Z,17.37
2022-08-28T05:17:36.216Z,17.42
2022-08-28T05:20:05.780Z,17.44
2022-08-28T05:22:33.919Z,17.40
2022-08-28T05:25:01.925Z,17.52
2022-08-28T05:27:30.971Z,17.51
2022-08-28T05:30:01.888Z,17.49
2022-08-28T05:32:29.998Z,17.42
2022-08-28T05:34:57.714Z,17.49
2022-08-28T05:37:25.462Z,17.48
2022-08-28T05:39:53.132Z,17.55
2022-08-28T05:42:20.841Z,17.57
2022-08-28T05:44:49.881Z,17.59
2022-08-28T05:47:22.433Z,17.56
2022-08-28T05:49:50.084Z,17.46
2022-08-28T05:52:20.096Z,17.60
2022-08-28T05:54:48.520Z,17.65
2022-08-28T05:57:16.174Z,17.63
2022-08-28T05:59:44.074Z,17.68
2022-08-28T06:02:13.108Z,17.70
2022-08-28T06:04:40.916Z,17.87
2022-08-28T06:07:12.003Z,17.72
2022-08-28T06:09:39.724Z,17.80
2022-08-28T06:12:07.647Z,17.77
2022-08-28T06:14:35.905Z,17.86
2022-08-28T06:17:04.285Z,17.83
2022-08-28T06:19:39.320Z,17.95
2022-08-28T06:22:09.654Z,18.00
2022-08-28T06:24:37.942Z,18.04
2022-08-28T06:27:06.160Z,18.04
2022-08-28T06:29:34.076Z,18.06
2022-08-28T06:32:04.409Z,18.16
2022-08-28T06:34:33.534Z,18.15
2022-08-28T06:37:01.315Z,18.22
2022-08-28T06:39:29.026Z,18.25
2022-08-28T06:41:56.666Z,18.29
2022-08-28T06:44:24.332Z,18.32
2022-08-28T06:46:54.277Z,18.40
2022-08-28T06:49:22.351Z,18.40
2022-08-28T06:51:51.464Z,18.63
2022-08-28T06:54:22.725Z,18.72
2022-08-28T06:56:50.818Z,18.84
2022-08-28T06:59:18.458Z,18.92
2022-08-28T07:01:46.249Z,18.81
2022-08-28T07:04:14.788Z,18.90
2022-08-28T07:06:46.913Z,19.04
2022-08-28T07:09:16.720Z,19.16
2022-08-28T07:11:46.597Z,19.15
2022-08-28T07:14:14.505Z,19.08
2022-08-28T07:16:42.218Z,19.06
2022-08-28T07:19:11.923Z,19.12
2022-08-28T07:21:41.721Z,19.16
2022-08-28T07:24:10.571Z,19.16
2022-08-28T07:26:41.419Z,19.28
2022-08-28T07:29:11.056Z,19.39
2022-08-28T07:31:41.108Z,19.47
2022-08-28T07:34:09.757Z,19.75
2022-08-28T07:36:37.984Z,20.06
2022-08-28T07:39:06.695Z,19.78
2022-08-28T07:41:38.959Z,20.01
2022-08-28T07:44:26.474Z,20.13
2022-08-28T07:46:54.853Z,20.00
2022-08-28T07:49:23.226Z,19.99
2022-08-28T07:51:54.132Z,19.92
2022-08-28T07:54:22.472Z,19.90
2022-08-28T07:56:51.295Z,19.77
2022-08-28T07:59:22.077Z,19.97
2022-08-28T08:01:51.212Z,20.05
2022-08-28T08:04:20.949Z,20.17
2022-08-28T08:06:49.131Z,20.33
2022-08-28T08:09:19.446Z,20.52
2022-08-28T08:11:49.110Z,20.73
2022-08-28T08:14:17.971Z,20.65
2022-08-28T08:16:47.822Z,20.71
2022-08-28T08:19:17.573Z,20.82
2022-08-28T08:21:48.262Z,20.58
2022-08-28T08:24:22.213Z,20.66
2022-08-28T08:26:58.795Z,20.73
2022-08-28T08:29:29.240Z,20.70
2022-08-28T08:32:02.862Z,20.94
2022-08-28T08:34:31.210Z,21.01
2022-08-28T08:36:59.467Z,21.14
2022-08-28T08:39:27.420Z,21.16
2022-08-28T08:41:58.279Z,20.79
2022-08-28T08:44:33.504Z,20.89
2022-08-28T08:47:14.113Z,20.70
2022-08-28T08:49:45.234Z,20.81
2022-08-28T08:52:36.039Z,20.93
2022-08-28T08:55:22.169Z,21.07
2022-08-28T08:57:55.391Z,21.14
2022-08-28T09:00:23.722Z,21.02
2022-08-28T09:02:58.369Z,20.90
2022-08-28T09:05:39.649Z,20.96
2022-08-28T09:08:08.694Z,21.15
2022-08-28T09:10:40.596Z,21.15
2022-08-28T09:13:14.264Z,21.14
2022-08-28T09:15:48.696Z,21.46
2022-08-28T09:18:22.555Z,21.61
2022-08-28T09:20:51.792Z,21.49
2022-08-28T09:23:21.332Z,21.62
2022-08-28T09:25:56.344Z,21.55
2022-08-28T09:28:29.716Z,21.65
2022-08-28T09:31:03.577Z,21.71
2022-08-28T09:33:37.491Z,21.67
2022-08-28T09:36:31.932Z,21.83
2022-08-28T09:39:09.187Z,22.08
2022-08-28T09:41:57.024Z,22.01
2022-08-28T09:44:25.333Z,22.57
2022-08-28T09:46:53.766Z,22.37
2022-08-28T09:49:29.038Z,22.70
2022-08-28T09:51:59.474Z,22.59
2022-08-28T09:54:33.858Z,22.85
2022-08-28T09:57:03.677Z,22.99
2022-08-28T09:59:32.152Z,22.75
2022-08-28T10:02:17.355Z,23.10
2022-08-28T10:04:58.002Z,23.21
2022-08-28T10:07:38.923Z,23.53
2022-08-28T10:10:24.891Z,23.48
2022-08-28T10:13:02.456Z,23.83
2022-08-28T10:15:39.939Z,23.65
2022-08-28T10:18:30.951Z,23.56
2022-08-28T10:21:05.862Z,23.57
2022-08-28T10:23:40.599Z,23.36
2022-08-28T10:28:46.870Z,23.77
2022-08-28T10:31:20.569Z,23.94
2022-08-28T10:34:12.742Z,23.88
2022-08-28T10:36:42.548Z,24.06
2022-08-28T10:39:22.895Z,23.50
2022-08-28T10:41:54.045Z,23.37
2022-08-28T10:44:27.171Z,23.52
2022-08-28T10:46:57.123Z,23.51
2022-08-28T10:49:28.447Z,24.02
2022-08-28T10:52:02.244Z,24.23
2022-08-28T10:54:38.230Z,24.35
2022-08-28T10:57:11.196Z,24.44
2022-08-28T10:59:41.906Z,24.33
2022-08-28T11:02:12.576Z,24.51
2022-08-28T11:04:40.834Z,24.67
2022-08-28T11:07:12.693Z,24.58
2022-08-28T11:09:42.782Z,24.88
2022-08-28T11:12:35.476Z,24.54
2022-08-28T11:15:44.907Z,24.33
2022-08-28T11:19:00.784Z,24.91
2022-08-28T11:21:30.142Z,24.60
2022-08-28T11:24:02.459Z,24.99
2022-08-28T11:26:35.014Z,25.28
2022-08-28T11:29:05.039Z,25.13
2022-08-28T11:31:38.934Z,24.93
2022-08-28T11:34:07.750Z,24.58
2022-08-28T11:36:59.964Z,24.61
2022-08-28T11:39:29.137Z,24.74
2022-08-28T11:42:38.534Z,24.64
2022-08-28T11:45:07.535Z,24.84
2022-08-28T11:47:43.992Z,25.03
2022-08-28T11:50:20.508Z,24.73
2022-08-28T11:53:11.079Z,24.58
2022-08-28T11:55:52.175Z,24.62
2022-08-28T11:58:24.060Z,24.31
2022-08-28T12:00:55.117Z,24.78
2022-08-28T12:03:28.750Z,24.98
2022-08-28T12:05:58.031Z,25.02
2022-08-28T12:09:04.953Z,25.25
2022-08-28T12:11:58.164Z,25.31
2022-08-28T12:15:07.677Z,25.26
2022-08-28T12:17:51.154Z,25.31
2022-08-28T12:20:38.709Z,25.72
2022-08-28T12:23:34.614Z,25.82
2022-08-28T12:26:04.224Z,25.94
2022-08-28T12:28:35.116Z,25.80
2022-08-28T12:31:45.816Z,26.00
2022-08-28T12:34:15.977Z,25.83
2022-08-28T12:36:43.706Z,25.89
2022-08-28T12:39:18.281Z,25.73
2022-08-28T12:41:46.309Z,25.68
2022-08-28T12:44:16.022Z,25.84
2022-08-28T12:46:44.758Z,25.82
2022-08-28T12:49:31.360Z,25.85
2022-08-28T12:52:11.211Z,26.13
2022-08-28T12:54:44.877Z,25.52
2022-08-28T12:57:14.719Z,25.98
2022-08-28T12:59:45.434Z,26.18
2022-08-28T13:02:20.399Z,26.23
2022-08-28T13:04:54.706Z,26.03
2022-08-28T13:07:27.822Z,26.08
2022-08-28T13:09:57.286Z,26.31
2022-08-28T13:12:37.818Z,26.22
2022-08-28T13:15:49.920Z,26.29
2022-08-28T13:18:52.107Z,26.26
2022-08-28T13:21:33.047Z,26.10
2022-08-28T13:24:17.834Z,26.05
2022-08-28T13:26:45.541Z,26.01
2022-08-28T13:29:19.496Z,25.83
2022-08-28T13:31:57.291Z,25.83
2022-08-28T13:34:26.961Z,25.85
2022-08-28T13:36:58.020Z,25.74
2022-08-28T13:39:25.704Z,25.63
2022-08-28T13:41:55.000Z,25.52
2022-08-28T13:44:29.308Z,25.51
2022-08-28T13:46:59.714Z,25.23
2022-08-28T13:49:28.672Z,25.49
2022-08-28T13:51:57.777Z,25.44
2022-08-28T13:54:26.025Z,25.52
2022-08-28T13:56:55.934Z,25.62
2022-08-28T13:59:24.331Z,25.63
2022-08-28T14:02:11.896Z,25.73
2022-08-28T14:04:41.164Z,25.46
2022-08-28T14:07:09.005Z,25.42
2022-08-28T14:09:37.107Z,25.61
2022-08-28T14:12:06.916Z,25.65
2022-08-28T14:14:34.800Z,25.69
2022-08-28T14:17:02.508Z,25.78
2022-08-28T14:19:30.778Z,26.04
2022-08-28T14:21:59.929Z,26.34
2022-08-28T14:24:27.647Z,26.38
2022-08-28T14:26:55.566Z,26.45
2022-08-28T14:29:25.905Z,26.03
2022-08-28T14:31:54.322Z,25.73
2022-08-28T14:34:23.712Z,25.85
2022-08-28T14:36:55.398Z,25.62
2022-08-28T14:39:27.019Z,25.46
2022-08-28T14:41:55.871Z,25.54
2022-08-28T14:44:25.731Z,25.74
2022-08-28T14:46:57.094Z,25.79
2022-08-28T14:49:25.836Z,25.78
2022-08-28T14:51:54.087Z,25.80
2022-08-28T14:56:51.856Z,25.89
2022-08-28T14:59:24.315Z,25.92
2022-08-28T15:01:53.401Z,26.25
2022-08-28T15:04:23.582Z,26.17
2022-08-28T15:06:52.033Z,26.03
2022-08-28T15:09:20.221Z,26.02
2022-08-28T15:11:47.914Z,25.73
2022-08-28T15:14:17.084Z,25.93
2022-08-28T15:16:47.789Z,25.97
2022-08-28T15:19:17.985Z,25.98
2022-08-28T15:21:47.863Z,25.88
2022-08-28T15:24:16.825Z,25.87
2022-08-28T15:26:44.869Z,25.73
2022-08-28T15:29:12.675Z,25.85
2022-08-28T15:31:43.857Z,25.64
2022-08-28T15:34:14.965Z,25.77
2022-08-28T15:36:43.164Z,25.71
2022-08-28T15:39:28.910Z,25.58
2022-08-28T15:41:57.250Z,25.58
2022-08-28T15:44:25.100Z,25.63
2022-08-28T15:46:55.901Z,25.54
2022-08-28T15:49:24.272Z,25.40
2022-08-28T15:51:52.546Z,25.50
2022-08-28T15:54:21.087Z,25.53
2022-08-28T15:56:49.627Z,25.57
2022-08-28T15:59:18.652Z,25.46
2022-08-28T16:01:46.456Z,25.52
2022-08-28T16:06:43.317Z,25.20
2022-08-28T16:09:11.764Z,25.17
2022-08-28T16:11:41.055Z,24.85
2022-08-28T16:14:09.193Z,25.08
2022-08-28T16:16:37.129Z,24.92
2022-08-28T16:19:05.114Z,24.83
2022-08-28T16:21:33.142Z,25.14
2022-08-28T16:24:02.469Z,25.30
2022-08-28T16:28:59.960Z,25.56
2022-08-28T16:33:56.000Z,25.31
2022-08-28T16:36:25.238Z,25.10
2022-08-28T16:39:00.343Z,25.08
2022-08-28T16:41:33.706Z,25.25
2022-08-28T16:44:01.332Z,25.03
2022-08-28T16:46:29.466Z,25.17
2022-08-28T16:48:57.356Z,25.03
2022-08-28T16:51:27.048Z,24.89
2022-08-28T16:53:55.134Z,24.83
2022-08-28T16:56:24.096Z,24.80
2022-08-28T16:58:53.635Z,24.88
2022-08-28T17:01:24.095Z,24.84
2022-08-28T17:03:52.864Z,24.85
2022-08-28T17:06:23.615Z,24.73
2022-08-28T17:08:56.403Z,24.83
2022-08-28T17:11:24.760Z,24.74
2022-08-28T17:13:53.862Z,24.67
2022-08-28T17:16:22.826Z,24.60
2022-08-28T17:18:52.113Z,24.70
2022-08-28T17:21:40.155Z,24.50
2022-08-28T17:24:08.569Z,24.49
2022-08-28T17:26:36.383Z,24.40
2022-08-28T17:29:05.816Z,24.30
2022-08-28T17:31:33.706Z,24.42
2022-08-28T17:34:01.482Z,24.25
2022-08-28T17:36:33.620Z,24.14
2022-08-28T17:39:02.984Z,24.10
2022-08-28T17:41:31.550Z,23.93
2022-08-28T17:44:01.054Z,23.89
2022-08-28T17:46:34.094Z,23.78
2022-08-28T17:49:05.984Z,23.70
2022-08-28T17:51:42.450Z,23.65
2022-08-28T17:54:13.032Z,23.62
2022-08-28T17:56:41.182Z,23.73
2022-08-28T17:59:09.181Z,23.56
2022-08-28T18:01:38.822Z,23.41
2022-08-28T18:04:06.657Z,23.24
2022-08-28T18:06:34.882Z,23.17
2022-08-28T18:09:02.967Z,23.08
2022-08-28T18:11:31.015Z,23.05
2022-08-28T18:13:59.654Z,22.97
2022-08-28T18:16:31.415Z,23.02
2022-08-28T18:19:01.118Z,22.83
2022-08-28T18:21:30.216Z,22.75
2022-08-28T18:23:58.273Z,22.76
2022-08-28T18:26:26.074Z,22.72
2022-08-28T18:28:53.668Z,22.67
2022-08-28T18:31:24.095Z,22.56
2022-08-28T18:33:52.084Z,22.41
2022-08-28T18:36:23.037Z,22.40
2022-08-28T18:38:51.341Z,22.33
2022-08-28T18:41:20.353Z,22.30
2022-08-28T18:43:48.303Z,22.32
2022-08-28T18:46:16.012Z,22.19
2022-08-28T18:48:43.816Z,22.03
2022-08-28T18:51:13.235Z,22.02
2022-08-28T18:53:43.382Z,21.96
2022-08-28T18:56:12.159Z,21.88
2022-08-28T18:58:40.537Z,21.86
2022-08-28T19:01:09.306Z,21.75
2022-08-28T19:03:37.686Z,21.72
2022-08-28T19:06:06.913Z,21.66
2022-08-28T19:08:36.711Z,21.49
2022-08-28T19:11:08.715Z,21.45
2022-08-28T19:13:36.722Z,21.44
2022-08-28T19:16:05.298Z,21.39
2022-08-28T19:18:33.319Z,21.42
2022-08-28T19:21:05.736Z,21.36
2022-08-28T19:23:33.650Z,21.39
2022-08-28T19:26:01.368Z,21.20
2022-08-28T19:28:30.362Z,21.28
2022-08-28T19:30:58.083Z,21.21
2022-08-28T19:33:26.090Z,21.18
2022-08-28T19:35:54.931Z,21.06
2022-08-28T19:38:22.617Z,21.10
2022-08-28T19:40:50.490Z,20.91
2022-08-28T19:43:18.406Z,20.89
2022-08-28T19:45:47.467Z,20.89
2022-08-28T19:48:15.676Z,20.83
2022-08-28T19:50:43.884Z,20.84
2022-08-28T19:53:11.533Z,20.83
2022-08-28T19:55:41.287Z,20.69
2022-08-28T19:58:10.302Z,20.67
2022-08-28T20:00:38.026Z,20.70
2022-08-28T20:03:07.123Z,20.64
2022-08-28T20:05:34.855Z,20.60
2022-08-28T20:08:06.355Z,20.51
2022-08-28T20:10:34.092Z,20.57
2022-08-28T20:13:01.684Z,20.52
2022-08-28T20:15:29.311Z,20.36
2022-08-28T20:17:57.739Z,20.28
2022-08-28T20:20:29.902Z,20.32
2022-08-28T20:22:57.973Z,20.19
2022-08-28T20:25:26.887Z,20.22
2022-08-28T20:27:58.333Z,19.95
2022-08-28T20:30:29.343Z,19.88
2022-08-28T20:32:57.162Z,19.89
2022-08-28T20:35:27.480Z,19.79
2022-08-28T20:37:55.691Z,19.80
2022-08-28T20:40:24.273Z,19.84
2022-08-28T20:42:52.362Z,19.81
2022-08-28T20:45:20.891Z,19.85
2022-08-28T20:47:49.605Z,19.74
2022-08-28T20:50:17.423Z,19.67
2022-08-28T20:52:46.599Z,19.58
2022-08-28T20:55:14.923Z,19.73
2022-08-28T20:57:42.939Z,19.58
2022-08-28T21:00:12.495Z,19.57
2022-08-28T21:02:40.290Z,19.64
2022-08-28T21:05:08.524Z,19.53
2022-08-28T21:07:36.324Z,19.48
2022-08-28T21:10:07.929Z,19.46
2022-08-28T21:12:36.369Z,19.47
2022-08-28T21:15:04.363Z,19.47
2022-08-28T21:17:32.065Z,19.34
2022-08-28T21:20:01.479Z,19.43
2022-08-28T21:22:31.332Z,19.33
2022-08-28T21:24:59.158Z,19.28
2022-08-28T21:27:28.422Z,19.20
2022-08-28T21:29:58.018Z,19.23
2022-08-28T21:32:25.814Z,19.20
2022-08-28T21:34:54.506Z,19.20
2022-08-28T21:37:22.622Z,19.17
2022-08-28T21:39:50.742Z,19.09
2022-08-28T21:42:18.399Z,18.90
2022-08-28T21:44:51.865Z,18.94
2022-08-28T21:47:21.389Z,19.02
2022-08-28T21:49:49.536Z,18.84
2022-08-28T21:52:18.132Z,18.78
2022-08-28T21:54:45.952Z,18.52
2022-08-28T21:57:13.697Z,18.61
2022-08-28T21:59:41.649Z,18.56
2022-08-28T22:02:10.927Z,18.40
2022-08-28T22:04:38.739Z,18.34
2022-08-28T22:07:06.521Z,18.19
2022-08-28T22:09:34.347Z,18.27
2022-08-28T22:12:02.064Z,18.16
2022-08-28T22:14:29.729Z,18.16
2022-08-28T22:16:57.631Z,17.95
2022-08-28T22:19:26.816Z,18.06
2022-08-28T22:22:12.068Z,18.02
2022-08-28T22:24:39.725Z,18.04
2022-08-28T22:27:07.593Z,18.00
2022-08-28T22:29:37.163Z,17.96
2022-08-28T22:32:05.050Z,17.94
2022-08-28T22:34:39.084Z,17.97
2022-08-28T22:37:06.937Z,18.06
2022-08-28T22:39:35.077Z,17.85
2022-08-28T22:42:02.820Z,17.85
2022-08-28T22:44:31.102Z,17.84
2022-08-28T22:46:59.154Z,17.66
2022-08-28T22:49:27.261Z,17.83
2022-08-28T22:51:56.266Z,17.64
2022-08-28T22:54:23.997Z,17.58
2022-08-28T22:56:51.655Z,17.66
2022-08-28T22:59:19.566Z,17.60
2022-08-28T23:01:47.404Z,17.65
2022-08-28T23:04:15.953Z,17.57
2022-08-28T23:06:43.617Z,17.70
2022-08-28T23:09:12.822Z,17.60
2022-08-28T23:11:40.411Z,17.64
2022-08-28T23:14:08.056Z,17.68
2022-08-28T23:16:36.082Z,17.59
2022-08-28T23:19:07.867Z,17.51
2022-08-28T23:21:43.403Z,17.49
2022-08-28T23:24:13.449Z,17.40
2022-08-28T23:26:41.663Z,17.49
2022-08-28T23:29:09.364Z,17.37
2022-08-28T23:31:37.538Z,17.37
2022-08-28T23:34:06.121Z,17.40
2022-08-28T23:36:35.792Z,17.34
2022-08-28T23:39:03.666Z,17.35
2022-08-28T23:41:32.760Z,17.30
2022-08-28T23:44:02.336Z,17.29
2022-08-28T23:46:31.932Z,17.22
2022-08-28T23:48:59.639Z,17.29
2022-08-28T23:51:27.459Z,17.22
2022-08-28T23:53:55.869Z,17.21
2022-08-28T23:56:28.002Z,17.08
2022-08-28T23:58:57.279Z,17.18
